createdAt,value
2017-01-16T00:00:18.967Z,1.71
2017-01-16T00:02:31.201Z,1.71
2017-01-16T00:04:43.501Z,1.73
2017-01-16T00:06:55.855Z,1.73
2017-01-16T00:09:08.212Z,1.73
2017-01-16T00:11:20.702Z,1.74
2017-01-16T00:13:32.977Z,1.75
2017-01-16T00:15:45.603Z,1.76
2017-01-16T00:17:57.918Z,1.76
2017-01-16T00:20:10.130Z,1.78
2017-01-16T00:22:22.342Z,1.78
2017-01-16T00:24:34.563Z,1.79
2017-01-16T00:26:46.981Z,1.79
2017-01-16T00:28:59.334Z,1.8
2017-01-16T00:31:01.660Z,1.82
2017-01-16T00:33:13.863Z,1.83
2017-01-16T00:35:26.210Z,1.83
2017-01-16T00:37:38.679Z,1.85
2017-01-16T00:39:45.948Z,1.85
2017-01-16T00:41:58.244Z,1.86
2017-01-16T00:44:10.623Z,1.86
2017-01-16T00:46:12.845Z,1.87
2017-01-16T00:48:25.477Z,1.88
2017-01-16T00:50:37.771Z,1.9
2017-01-16T00:52:50.052Z,1.9
2017-01-16T00:55:02.228Z,1.91
2017-01-16T00:57:14.712Z,1.92
2017-01-16T00:59:27.119Z,1.92
2017-01-16T01:01:39.516Z,1.92
2017-01-16T01:03:51.978Z,1.93
2017-01-16T01:06:04.181Z,1.94
2017-01-16T01:08:16.464Z,1.93
2017-01-16T01:10:28.891Z,1.93
2017-01-16T01:12:41.194Z,1.94
2017-01-16T01:14:48.491Z,1.94
2017-01-16T01:17:00.678Z,1.92
2017-01-16T01:19:12.893Z,1.92
2017-01-16T01:21:25.297Z,1.91
2017-01-16T01:23:37.870Z,1.89
2017-01-16T01:25:40.282Z,1.88
2017-01-16T01:27:52.496Z,1.87
2017-01-16T01:30:04.869Z,1.86
2017-01-16T01:32:12.151Z,1.85
2017-01-16T01:34:24.413Z,1.85
2017-01-16T01:36:36.860Z,1.84
2017-01-16T01:38:49.173Z,1.84
2017-01-16T01:40:56.498Z,1.83
2017-01-16T01:43:03.838Z,1.83
2017-01-16T01:45:16.025Z,1.83
2017-01-16T01:47:28.433Z,1.83
2017-01-16T01:49:40.664Z,1.83
2017-01-16T01:51:52.876Z,1.83
2017-01-16T01:54:05.264Z,1.83
2017-01-16T01:56:17.982Z,1.84
2017-01-16T01:58:30.389Z,1.83
2017-01-16T02:00:42.685Z,1.83
2017-01-16T02:02:49.949Z,1.84
2017-01-16T02:05:02.261Z,1.83
2017-01-16T02:07:09.498Z,1.84
2017-01-16T02:09:21.777Z,1.84
2017-01-16T02:11:33.953Z,1.84
2017-01-16T02:13:46.260Z,1.85
2017-01-16T02:15:58.493Z,1.85
2017-01-16T02:18:06.046Z,1.85
2017-01-16T02:20:18.517Z,1.86
2017-01-16T02:22:30.649Z,1.85
2017-01-16T02:24:43.169Z,1.85
2017-01-16T02:26:55.674Z,1.86
2017-01-16T02:29:08.161Z,1.85
2017-01-16T02:31:20.339Z,1.85
2017-01-16T02:33:32.695Z,1.85
2017-01-16T02:35:44.963Z,1.84
2017-01-16T02:37:57.270Z,1.83
2017-01-16T02:40:09.579Z,1.83
2017-01-16T02:42:21.966Z,1.83
2017-01-16T02:44:34.059Z,1.83
2017-01-16T02:46:41.505Z,1.83
2017-01-16T02:48:53.834Z,1.82
2017-01-16T02:51:06.182Z,1.82
2017-01-16T02:53:21.449Z,1.81
2017-01-16T02:55:28.723Z,1.81
2017-01-16T02:57:40.992Z,1.81
2017-01-16T02:59:53.233Z,1.8
2017-01-16T03:02:05.837Z,1.8
2017-01-16T03:04:18.075Z,1.79
2017-01-16T03:06:30.230Z,1.78
2017-01-16T03:08:37.484Z,1.77
2017-01-16T03:10:49.787Z,1.77
2017-01-16T03:13:02.069Z,1.76
2017-01-16T03:15:14.204Z,1.75
2017-01-16T03:17:26.393Z,1.75
2017-01-16T03:19:38.578Z,1.75
2017-01-16T03:21:50.750Z,1.75
2017-01-16T03:24:03.085Z,1.75
2017-01-16T03:26:15.445Z,1.75
2017-01-16T03:28:27.621Z,1.75
2017-01-16T03:30:39.981Z,1.76
2017-01-16T03:32:53.309Z,1.76
2017-01-16T03:35:05.814Z,1.76
2017-01-16T03:37:18.421Z,1.76
2017-01-16T03:39:25.625Z,1.76
2017-01-16T03:41:38.068Z,1.75
2017-01-16T03:43:45.438Z,1.76
2017-01-16T03:45:57.644Z,1.76
2017-01-16T03:48:09.984Z,1.76
2017-01-16T03:50:22.309Z,1.76
2017-01-16T03:52:34.647Z,1.76
2017-01-16T03:54:46.933Z,1.76
2017-01-16T03:56:59.119Z,1.76
2017-01-16T03:59:11.429Z,1.76
2017-01-16T04:01:24.760Z,1.77
2017-01-16T04:03:32.264Z,1.77
2017-01-16T04:05:44.530Z,1.77
2017-01-16T04:07:56.750Z,1.78
2017-01-16T04:10:09.387Z,1.78
2017-01-16T04:12:21.984Z,1.78
2017-01-16T04:14:34.251Z,1.79
2017-01-16T04:16:46.674Z,1.8
2017-01-16T04:18:59.084Z,1.8
2017-01-16T04:21:11.572Z,1.81
2017-01-16T04:23:19.282Z,1.82
2017-01-16T04:25:31.522Z,1.82
2017-01-16T04:27:43.812Z,1.82
2017-01-16T04:29:56.310Z,1.83
2017-01-16T04:32:08.714Z,1.83
2017-01-16T04:34:21.171Z,1.84
2017-01-16T04:36:28.458Z,1.84
2017-01-16T04:38:35.730Z,1.85
2017-01-16T04:40:47.975Z,1.85
2017-01-16T04:43:00.588Z,1.86
2017-01-16T04:45:12.947Z,1.87
2017-01-16T04:47:25.386Z,1.86
2017-01-16T04:49:37.561Z,1.88
2017-01-16T04:51:49.715Z,1.88
2017-01-16T04:54:02.181Z,1.89
2017-01-16T04:56:14.569Z,1.89
2017-01-16T04:58:26.819Z,1.9
2017-01-16T05:00:39.170Z,1.91
2017-01-16T05:02:51.386Z,1.91
2017-01-16T05:05:03.765Z,1.91
2017-01-16T05:07:15.950Z,1.91
2017-01-16T05:09:28.266Z,1.92
2017-01-16T05:11:40.594Z,1.92
2017-01-16T05:13:52.873Z,1.92
2017-01-16T05:16:05.123Z,1.92
2017-01-16T05:18:17.650Z,1.93
2017-01-16T05:20:30.016Z,1.93
2017-01-16T05:22:42.314Z,1.93
2017-01-16T05:24:54.558Z,1.94
2017-01-16T05:27:06.923Z,1.94
2017-01-16T05:29:19.212Z,1.94
2017-01-16T05:31:26.593Z,1.94
2017-01-16T05:33:38.837Z,1.96
2017-01-16T05:35:41.173Z,1.96
2017-01-16T05:37:48.426Z,1.96
2017-01-16T05:40:00.720Z,1.96
2017-01-16T05:42:08.085Z,1.97
2017-01-16T05:44:20.321Z,1.97
2017-01-16T05:46:27.613Z,1.98
2017-01-16T05:48:39.918Z,1.97
2017-01-16T05:50:52.333Z,1.98
2017-01-16T05:53:05.093Z,1.98
2017-01-16T05:55:18.389Z,1.98
2017-01-16T05:57:30.715Z,1.99
2017-01-16T05:59:42.937Z,1.99
2017-01-16T06:01:55.273Z,1.99
2017-01-16T06:04:07.701Z,2
2017-01-16T06:06:15.196Z,2.01
2017-01-16T06:08:27.478Z,2
2017-01-16T06:10:39.842Z,2.02
2017-01-16T06:12:53.014Z,2.02
2017-01-16T06:15:05.227Z,2.02
2017-01-16T06:17:17.414Z,2.02
2017-01-16T06:19:29.831Z,2.03
2017-01-16T06:21:43.306Z,2.03
2017-01-16T06:23:50.748Z,2.04
2017-01-16T06:26:03.068Z,2.04
2017-01-16T06:28:15.892Z,2.05
2017-01-16T06:30:28.228Z,2.05
2017-01-16T06:32:40.490Z,2.05
2017-01-16T06:34:52.786Z,2.06
2017-01-16T06:37:00.075Z,2.06
2017-01-16T06:39:12.469Z,2.06
2017-01-16T06:41:19.815Z,2.07
2017-01-16T06:43:32.143Z,2.07
2017-01-16T06:45:44.425Z,2.07
2017-01-16T06:47:56.660Z,2.08
2017-01-16T06:50:04.118Z,2.08
2017-01-16T06:52:16.374Z,2.08
2017-01-16T06:54:28.620Z,2.08
2017-01-16T06:56:40.960Z,2.09
2017-01-16T06:58:53.321Z,2.09
2017-01-16T07:01:05.753Z,2.1
2017-01-16T07:03:18.237Z,2.1
2017-01-16T07:05:30.624Z,2.1
2017-01-16T07:07:42.979Z,2.12
2017-01-16T07:09:55.390Z,2.12
2017-01-16T07:12:07.536Z,2.13
2017-01-16T07:14:14.874Z,2.13
2017-01-16T07:16:23.230Z,2.14
2017-01-16T07:18:30.586Z,2.15
2017-01-16T07:20:43.020Z,2.16
2017-01-16T07:22:50.356Z,2.17
2017-01-16T07:25:02.981Z,2.17
2017-01-16T07:27:15.801Z,2.18
2017-01-16T07:29:31.228Z,2.2
2017-01-16T07:31:44.879Z,2.2
2017-01-16T07:33:57.361Z,2.21
2017-01-16T07:36:04.948Z,2.22
2017-01-16T07:38:18.045Z,2.24
2017-01-16T07:40:20.969Z,2.25
2017-01-16T07:42:33.455Z,2.26
2017-01-16T07:44:46.041Z,2.27
2017-01-16T07:46:58.449Z,2.29
2017-01-16T07:49:00.960Z,2.3
2017-01-16T07:51:13.402Z,2.31
2017-01-16T07:53:25.928Z,2.33
2017-01-16T07:55:38.236Z,2.53
2017-01-16T07:57:50.626Z,2.46
2017-01-16T08:00:03.160Z,2.25
2017-01-16T08:02:10.344Z,2.11
2017-01-16T08:04:22.700Z,2.05
2017-01-16T08:06:34.843Z,2.03
2017-01-16T08:08:47.189Z,2.01
2017-01-16T08:10:54.445Z,2.03
2017-01-16T08:13:07.126Z,2.08
2017-01-16T08:15:19.344Z,2.16
2017-01-16T08:17:31.602Z,2.2
2017-01-16T08:19:44.027Z,2.18
2017-01-16T08:21:56.328Z,2.19
2017-01-16T08:24:08.635Z,2.22
2017-01-16T08:26:21.022Z,2.29
2017-01-16T08:28:33.273Z,2.36
2017-01-16T08:30:45.448Z,2.46
2017-01-16T08:32:57.682Z,2.52
2017-01-16T08:35:09.981Z,2.62
2017-01-16T08:37:22.230Z,2.74
2017-01-16T08:39:29.594Z,2.85
2017-01-16T08:41:41.879Z,3.01
2017-01-16T08:43:54.167Z,3.22
2017-01-16T08:46:06.823Z,3.42
2017-01-16T08:48:19.268Z,3.53
2017-01-16T08:50:31.837Z,3.59
2017-01-16T08:52:39.124Z,3.6
2017-01-16T08:54:51.639Z,3.57
2017-01-16T08:57:03.954Z,3.52
2017-01-16T08:59:16.103Z,3.44
2017-01-16T09:01:28.327Z,3.51
2017-01-16T09:03:40.547Z,3.72
2017-01-16T09:05:52.869Z,3.87
2017-01-16T09:08:06.088Z,3.92
2017-01-16T09:10:18.670Z,3.86
2017-01-16T09:12:31.036Z,3.94
2017-01-16T09:14:43.338Z,4.13
2017-01-16T09:16:59.405Z,4.31
2017-01-16T09:19:11.810Z,4.42
2017-01-16T09:21:19.238Z,4.49
2017-01-16T09:23:31.708Z,4.49
2017-01-16T09:25:44.031Z,4.54
2017-01-16T09:27:56.512Z,4.64
2017-01-16T09:30:08.813Z,4.81
2017-01-16T09:32:21.117Z,4.96
2017-01-16T09:34:28.416Z,5.14
2017-01-16T09:36:40.850Z,5.33
2017-01-16T09:38:48.086Z,5.44
2017-01-16T09:40:55.274Z,5.38
2017-01-16T09:43:08.383Z,5.23
2017-01-16T09:45:35.895Z,5.2
2017-01-16T09:47:51.979Z,5.33
2017-01-16T09:50:07.632Z,5.42
2017-01-16T09:52:24.409Z,5.48
2017-01-16T09:54:45.094Z,5.6
2017-01-16T09:56:57.768Z,5.72
2017-01-16T09:59:10.143Z,5.73
2017-01-16T10:01:22.436Z,5.74
2017-01-16T10:03:34.699Z,5.84
2017-01-16T10:05:42.046Z,5.89
2017-01-16T10:07:54.375Z,5.9
2017-01-16T10:10:06.765Z,5.83
2017-01-16T10:12:19.170Z,5.66
2017-01-16T10:14:31.445Z,5.43
2017-01-16T10:16:43.877Z,5.4
2017-01-16T10:18:56.042Z,5.5
2017-01-16T10:21:08.373Z,5.64
2017-01-16T10:23:21.881Z,5.8
2017-01-16T10:25:32.608Z,5.92
2017-01-16T10:27:45.088Z,5.95
2017-01-16T10:29:58.253Z,5.92
2017-01-16T10:32:05.829Z,5.96
2017-01-16T10:34:18.305Z,6.09
2017-01-16T10:36:30.581Z,6.16
2017-01-16T10:38:43.002Z,6.23
2017-01-16T10:40:55.161Z,6.31
2017-01-16T10:43:07.480Z,6.32
2017-01-16T10:45:19.783Z,6.37
2017-01-16T10:47:32.093Z,6.4
2017-01-16T10:49:44.479Z,6.59
2017-01-16T10:51:56.795Z,7.08
2017-01-16T10:54:09.043Z,7.59
2017-01-16T10:56:21.351Z,8.14
2017-01-16T10:58:33.685Z,8.51
2017-01-16T11:00:36.094Z,8.86
2017-01-16T11:02:46.756Z,8.96
2017-01-16T11:04:54.199Z,8.78
2017-01-16T11:07:01.779Z,8.39
2017-01-16T11:09:09.100Z,8.14
2017-01-16T11:11:21.466Z,7.95
2017-01-16T11:13:33.953Z,7.86
2017-01-16T11:15:36.433Z,7.98
2017-01-16T11:17:43.737Z,8.25
2017-01-16T11:19:55.985Z,8.47
2017-01-16T11:22:08.239Z,8.63
2017-01-16T11:24:10.551Z,8.58
2017-01-16T11:26:22.834Z,8.37
2017-01-16T11:28:35.035Z,8.11
2017-01-16T11:30:42.142Z,7.81
2017-01-16T11:32:49.332Z,7.52
2017-01-16T11:34:56.519Z,7.2
2017-01-16T11:37:08.887Z,6.79
2017-01-16T11:39:16.230Z,6.41
2017-01-16T11:41:28.612Z,6.09
2017-01-16T11:43:41.114Z,5.87
2017-01-16T11:45:53.374Z,5.75
2017-01-16T11:48:05.667Z,5.71
2017-01-16T11:50:17.915Z,5.68
2017-01-16T11:52:30.116Z,5.66
2017-01-16T11:54:42.323Z,5.61
2017-01-16T11:56:54.647Z,5.6
2017-01-16T11:59:07.086Z,5.62
2017-01-16T12:01:19.318Z,5.7
2017-01-16T12:03:31.548Z,5.84
2017-01-16T12:05:43.903Z,5.97
2017-01-16T12:07:51.272Z,6.19
2017-01-16T12:10:03.504Z,6.4
2017-01-16T12:12:15.855Z,6.54
2017-01-16T12:14:23.542Z,6.59
2017-01-16T12:16:36.038Z,6.6
2017-01-16T12:18:48.263Z,6.59
2017-01-16T12:21:00.547Z,6.55
2017-01-16T12:23:12.720Z,6.52
2017-01-16T12:25:20.122Z,6.44
2017-01-16T12:27:27.507Z,6.23
2017-01-16T12:29:39.777Z,6.12
2017-01-16T12:31:52.311Z,6.07
2017-01-16T12:34:04.532Z,6.08
2017-01-16T12:36:16.903Z,6.22
2017-01-16T12:38:29.127Z,6.41
2017-01-16T12:40:41.402Z,6.64
2017-01-16T12:42:53.702Z,6.76
2017-01-16T12:45:00.853Z,6.84
2017-01-16T12:47:13.231Z,6.89
2017-01-16T12:49:25.729Z,6.94
2017-01-16T12:51:41.791Z,7.01
2017-01-16T12:53:49.317Z,7.07
2017-01-16T12:56:01.586Z,7.04
2017-01-16T12:58:08.970Z,6.88
2017-01-16T13:00:21.186Z,6.67
2017-01-16T13:02:33.446Z,6.5
2017-01-16T13:04:45.665Z,6.39
2017-01-16T13:06:58.030Z,6.33
2017-01-16T13:09:05.390Z,6.33
2017-01-16T13:11:12.580Z,6.35
2017-01-16T13:13:24.752Z,6.33
2017-01-16T13:15:37.089Z,6.42
2017-01-16T13:17:49.358Z,6.49
2017-01-16T13:20:01.744Z,6.52
2017-01-16T13:22:09.258Z,6.49
2017-01-16T13:24:21.502Z,6.39
2017-01-16T13:26:33.868Z,6.3
2017-01-16T13:28:46.258Z,6.21
2017-01-16T13:30:53.513Z,6.1
2017-01-16T13:33:05.816Z,5.93
2017-01-16T13:35:18.308Z,5.73
2017-01-16T13:37:30.706Z,5.47
2017-01-16T13:39:42.895Z,5.17
2017-01-16T13:41:55.157Z,4.99
2017-01-16T13:44:02.448Z,5
2017-01-16T13:46:09.759Z,5.02
2017-01-16T13:48:17.276Z,5.08
2017-01-16T13:50:24.459Z,5.13
2017-01-16T13:52:36.701Z,5.13
2017-01-16T13:54:49.131Z,5.14
2017-01-16T13:57:01.534Z,5.18
2017-01-16T13:59:14.188Z,5.23
2017-01-16T14:01:26.603Z,5.28
2017-01-16T14:03:34.100Z,5.32
2017-01-16T14:05:46.364Z,5.37
2017-01-16T14:07:58.563Z,5.35
2017-01-16T14:10:10.908Z,5.37
2017-01-16T14:12:23.047Z,5.32
2017-01-16T14:14:35.303Z,5.26
2017-01-16T14:16:47.584Z,5.22
2017-01-16T14:18:54.864Z,5.16
2017-01-16T14:21:02.136Z,5.09
2017-01-16T14:23:14.576Z,5.02
2017-01-16T14:25:26.804Z,4.95
2017-01-16T14:27:29.156Z,4.89
2017-01-16T14:29:41.358Z,4.83
2017-01-16T14:31:53.916Z,4.77
2017-01-16T14:34:06.417Z,4.69
2017-01-16T14:36:18.826Z,4.62
2017-01-16T14:38:32.936Z,4.56
2017-01-16T14:40:48.695Z,4.47
2017-01-16T14:42:56.066Z,4.37
2017-01-16T14:45:08.498Z,4.28
2017-01-16T14:47:20.839Z,4.22
2017-01-16T14:49:28.337Z,4.14
2017-01-16T14:51:40.911Z,4.05
2017-01-16T14:53:53.229Z,3.97
2017-01-16T14:56:08.356Z,3.91
2017-01-16T14:58:15.722Z,3.84
2017-01-16T15:00:28.346Z,3.77
2017-01-16T15:02:40.598Z,3.68
2017-01-16T15:04:53.078Z,3.63
2017-01-16T15:07:06.396Z,3.56
2017-01-16T15:09:18.738Z,3.5
2017-01-16T15:11:31.153Z,3.42
2017-01-16T15:13:38.849Z,3.37
2017-01-16T15:15:51.527Z,3.32
2017-01-16T15:18:03.951Z,3.27
2017-01-16T15:20:16.227Z,3.21
2017-01-16T15:22:28.738Z,3.13
2017-01-16T15:24:41.125Z,3.05
2017-01-16T15:26:53.564Z,3
2017-01-16T15:29:00.930Z,2.96
2017-01-16T15:31:13.312Z,2.89
2017-01-16T15:33:25.747Z,2.83
2017-01-16T15:35:33.066Z,2.77
2017-01-16T15:37:45.401Z,2.7
2017-01-16T15:39:52.761Z,2.63
2017-01-16T15:42:00.179Z,2.55
2017-01-16T15:44:12.486Z,2.45
2017-01-16T15:46:24.904Z,2.37
2017-01-16T15:48:38.250Z,2.28
2017-01-16T15:50:51.067Z,2.2
2017-01-16T15:53:03.370Z,2.12
2017-01-16T15:55:15.630Z,2.07
2017-01-16T15:57:23.072Z,2.03
2017-01-16T15:59:35.371Z,1.97
2017-01-16T16:01:42.804Z,1.92
2017-01-16T16:03:55.115Z,1.89
2017-01-16T16:06:07.462Z,1.86
2017-01-16T16:08:14.800Z,1.83
2017-01-16T16:10:27.195Z,1.86
2017-01-16T16:12:39.622Z,1.87
2017-01-16T16:14:51.876Z,1.89
2017-01-16T16:16:59.651Z,1.88
2017-01-16T16:19:12.032Z,1.83
2017-01-16T16:21:24.958Z,1.78
2017-01-16T16:23:37.241Z,1.74
2017-01-16T16:25:49.618Z,1.68
2017-01-16T16:27:57.480Z,1.63
2017-01-16T16:30:09.726Z,1.58
2017-01-16T16:32:22.201Z,1.54
2017-01-16T16:34:34.537Z,1.48
2017-01-16T16:36:47.149Z,1.45
2017-01-16T16:38:59.551Z,1.44
2017-01-16T16:41:06.981Z,1.42
2017-01-16T16:43:14.296Z,1.4
2017-01-16T16:45:26.624Z,1.38
2017-01-16T16:47:33.966Z,1.38
2017-01-16T16:49:46.328Z,1.39
2017-01-16T16:51:58.559Z,1.43
2017-01-16T16:54:11.030Z,1.46
2017-01-16T16:56:18.708Z,1.49
2017-01-16T16:58:30.855Z,1.54
2017-01-16T17:00:43.251Z,1.59
2017-01-16T17:02:50.598Z,1.65
2017-01-16T17:05:02.979Z,1.71
2017-01-16T17:07:15.507Z,1.76
2017-01-16T17:09:23.086Z,1.82
2017-01-16T17:11:35.527Z,1.87
2017-01-16T17:13:47.948Z,1.89
2017-01-16T17:16:00.522Z,1.92
2017-01-16T17:18:12.961Z,1.9
2017-01-16T17:20:25.391Z,1.87
2017-01-16T17:22:37.814Z,1.84
2017-01-16T17:24:50.773Z,1.83
2017-01-16T17:27:04.392Z,1.83
2017-01-16T17:29:17.551Z,1.8
2017-01-16T17:31:26.177Z,1.76
2017-01-16T17:33:38.956Z,1.73
2017-01-16T17:35:51.415Z,1.7
2017-01-16T17:38:03.699Z,1.66
2017-01-16T17:40:16.052Z,1.64
2017-01-16T17:42:28.667Z,1.62
2017-01-16T17:44:41.420Z,1.63
2017-01-16T17:46:53.769Z,1.63
2017-01-16T17:49:06.150Z,1.66
2017-01-16T17:51:15.238Z,1.67
2017-01-16T17:53:31.393Z,1.68
2017-01-16T17:55:38.981Z,1.68
2017-01-16T17:57:51.334Z,1.65
2017-01-16T17:59:54.164Z,1.6
2017-01-16T18:02:06.639Z,1.56
2017-01-16T18:04:19.043Z,1.52
2017-01-16T18:06:31.494Z,1.48
2017-01-16T18:08:43.977Z,1.47
2017-01-16T18:10:56.388Z,1.46
2017-01-16T18:13:08.811Z,1.44
2017-01-16T18:15:16.320Z,1.41
2017-01-16T18:17:28.708Z,1.38
2017-01-16T18:19:41.344Z,1.34
2017-01-16T18:21:54.588Z,1.35
2017-01-16T18:24:07.125Z,1.37
2017-01-16T18:26:19.432Z,1.39
2017-01-16T18:28:31.964Z,1.4
2017-01-16T18:30:44.315Z,1.42
2017-01-16T18:32:56.747Z,1.43
2017-01-16T18:35:09.463Z,1.43
2017-01-16T18:37:21.728Z,1.44
2017-01-16T18:39:34.423Z,1.46
2017-01-16T18:41:46.934Z,1.48
2017-01-16T18:43:59.538Z,1.48
2017-01-16T18:46:12.078Z,1.48
2017-01-16T18:48:24.534Z,1.48
2017-01-16T18:50:37.152Z,1.48
2017-01-16T18:52:49.493Z,1.48
2017-01-16T18:55:01.985Z,1.47
2017-01-16T18:57:14.430Z,1.48
2017-01-16T18:59:27.109Z,1.48
2017-01-16T19:01:39.669Z,1.48
2017-01-16T19:03:52.113Z,1.47
2017-01-16T19:06:04.576Z,1.47
2017-01-16T19:08:17.073Z,1.47
2017-01-16T19:10:29.565Z,1.46
2017-01-16T19:12:41.942Z,1.45
2017-01-16T19:14:54.269Z,1.45
2017-01-16T19:16:56.865Z,1.42
2017-01-16T19:19:09.336Z,1.41
2017-01-16T19:21:21.860Z,1.4
2017-01-16T19:23:34.348Z,1.4
2017-01-16T19:25:46.713Z,1.39
2017-01-16T19:27:59.025Z,1.36
2017-01-16T19:30:11.260Z,1.35
2017-01-16T19:32:23.717Z,1.32
2017-01-16T19:34:36.247Z,1.29
2017-01-16T19:36:48.724Z,1.25
2017-01-16T19:39:01.552Z,1.23
2017-01-16T19:41:14.341Z,1.21
2017-01-16T19:43:22.385Z,1.2
2017-01-16T19:45:34.836Z,1.19
2017-01-16T19:47:47.199Z,1.17
2017-01-16T19:49:59.575Z,1.15
2017-01-16T19:52:12.666Z,1.13
2017-01-16T19:54:26.012Z,1.13
2017-01-16T19:56:39.384Z,1.13
2017-01-16T19:58:52.456Z,1.13
2017-01-16T20:01:06.659Z,1.12
2017-01-16T20:03:20.438Z,1.11
2017-01-16T20:05:33.973Z,1.12
2017-01-16T20:07:41.762Z,1.11
2017-01-16T20:09:49.308Z,1.11
2017-01-16T20:12:05.460Z,1.1
2017-01-16T20:14:18.280Z,1.11
2017-01-16T20:16:36.942Z,1.11
2017-01-16T20:18:57.436Z,1.1
2017-01-16T20:21:09.788Z,1.1
2017-01-16T20:23:22.712Z,1.1
2017-01-16T20:25:31.223Z,1.1
2017-01-16T20:27:44.277Z,1.11
2017-01-16T20:29:56.676Z,1.1
2017-01-16T20:32:09.060Z,1.1
2017-01-16T20:34:16.686Z,1.11
2017-01-16T20:36:28.988Z,1.1
2017-01-16T20:38:41.308Z,1.1
2017-01-16T20:40:53.609Z,1.08
2017-01-16T20:43:06.085Z,1.09
2017-01-16T20:45:18.400Z,1.09
2017-01-16T20:47:31.109Z,1.08
2017-01-16T20:49:43.809Z,1.09
2017-01-16T20:51:56.657Z,1.09
2017-01-16T20:54:08.974Z,1.09
2017-01-16T20:56:21.422Z,1.09
2017-01-16T20:58:33.664Z,1.08
2017-01-16T21:00:46.055Z,1.08
2017-01-16T21:02:58.433Z,1.08
2017-01-16T21:05:10.712Z,1.08
2017-01-16T21:07:23.221Z,1.07
2017-01-16T21:09:35.528Z,1.07
2017-01-16T21:11:47.862Z,1.07
2017-01-16T21:14:00.314Z,1.07
2017-01-16T21:16:12.518Z,1.07
2017-01-16T21:18:24.779Z,1.07
2017-01-16T21:20:37.195Z,1.06
2017-01-16T21:22:44.782Z,1.06
2017-01-16T21:24:57.855Z,1.05
2017-01-16T21:27:13.882Z,1.05
2017-01-16T21:29:26.541Z,1.06
2017-01-16T21:31:39.521Z,1.06
2017-01-16T21:33:52.097Z,1.07
2017-01-16T21:36:08.280Z,1.07
2017-01-16T21:38:20.761Z,1.08
2017-01-16T21:40:33.183Z,1.08
2017-01-16T21:42:40.686Z,1.07
2017-01-16T21:44:53.184Z,1.08
2017-01-16T21:47:01.177Z,1.08
2017-01-16T21:49:13.400Z,1.07
2017-01-16T21:51:20.727Z,1.07
2017-01-16T21:53:33.001Z,1.07
2017-01-16T21:56:01.711Z,1.06
2017-01-16T21:58:16.855Z,1.05
2017-01-16T22:00:42.447Z,1.04
2017-01-16T22:02:54.773Z,1.04
2017-01-16T22:05:16.964Z,1.04
2017-01-16T22:07:35.195Z,1.04
2017-01-16T22:09:47.633Z,1.03
2017-01-16T22:11:55.113Z,1.02
2017-01-16T22:14:02.494Z,1.02
2017-01-16T22:16:20.612Z,1.03
2017-01-16T22:18:39.678Z,1.02
2017-01-16T22:20:58.101Z,1.03
2017-01-16T22:23:06.726Z,1.02
2017-01-16T22:25:25.551Z,1.02
2017-01-16T22:27:43.951Z,1.02
2017-01-16T22:29:55.926Z,1.01
2017-01-16T22:32:13.023Z,1
2017-01-16T22:34:46.431Z,0.99
2017-01-16T22:37:04.332Z,1
2017-01-16T22:39:23.759Z,0.99
2017-01-16T22:41:46.733Z,0.99
2017-01-16T22:44:12.186Z,0.98
2017-01-16T22:46:30.847Z,0.99
2017-01-16T22:48:49.682Z,1
2017-01-16T22:51:08.900Z,1
2017-01-16T22:53:27.581Z,0.99
2017-01-16T22:55:40.103Z,1
2017-01-16T22:57:47.979Z,1
2017-01-16T23:00:00.446Z,0.99
2017-01-16T23:02:13.177Z,1
2017-01-16T23:04:29.982Z,1
2017-01-16T23:06:37.323Z,1
2017-01-16T23:08:49.706Z,1
2017-01-16T23:11:02.199Z,1
2017-01-16T23:13:09.756Z,1
2017-01-16T23:15:21.990Z,0.99
2017-01-16T23:17:34.354Z,0.99
2017-01-16T23:19:41.632Z,0.99
2017-01-16T23:21:54.045Z,0.99
2017-01-16T23:24:06.298Z,1
2017-01-16T23:26:18.477Z,0.99
2017-01-16T23:28:30.719Z,1
2017-01-16T23:30:42.955Z,1
2017-01-16T23:32:50.405Z,0.99
2017-01-16T23:35:02.713Z,1
2017-01-16T23:37:14.966Z,0.99
2017-01-16T23:39:27.164Z,1
2017-01-16T23:41:34.488Z,0.99
2017-01-16T23:43:42.085Z,0.98
2017-01-16T23:45:54.561Z,0.98
2017-01-16T23:48:01.867Z,0.98
2017-01-16T23:50:14.030Z,0.98
2017-01-16T23:52:26.275Z,0.98
2017-01-16T23:54:38.470Z,0.97
2017-01-16T23:56:49.274Z,0.97
2017-01-16T23:59:09.390Z,0.95
